Time;durP1;ratioP1;P1;durP2;ratioP2;P2;SDS_P1;SDS_P2;PMS_P1;PMS_P2;Temp;Humidity;BMP_temperature;BMP_pressure;BME280_temperature;BME280_humidity;BME280_pressure;Samples;Min_cycle;Max_cycle;Signal;HPM_P1;HPM_P2
2022/05/24 00:00:49;;;;;;;;;;;15.90;99.90;;;;;;5097260;28;19931;-73
2022/05/24 00:03:21;;;;;;;;;;;15.90;99.90;;;;;;5089638;28;19924;-73
2022/05/24 00:05:53;;;;;;;;;;;15.90;99.90;;;;;;5086496;28;20400;-73
2022/05/24 00:08:24;;;;;;;;;;;15.90;99.90;;;;;;5057155;28;20417;-73
2022/05/24 00:10:56;;;;;;;;;;;15.90;99.90;;;;;;5085694;28;20273;-73
2022/05/24 00:13:28;;;;;;;;;;;15.90;99.90;;;;;;5085606;28;19932;-73
2022/05/24 00:15:59;;;;;;;;;;;15.90;99.90;;;;;;5082256;28;19928;-73
2022/05/24 00:18:27;;;;;;;;;;;15.90;99.90;;;;;;5065527;28;20308;-73
2022/05/24 00:20:58;;;;;;;;;;;15.90;99.90;;;;;;5085414;28;19935;-73
2022/05/24 00:23:30;;;;;;;;;;;15.90;99.90;;;;;;5080298;28;19924;-73
2022/05/24 00:25:58;;;;;;;;;;;15.90;99.90;;;;;;5064120;28;20388;-73
2022/05/24 00:28:26;;;;;;;;;;;15.90;99.90;;;;;;5057987;28;19924;-73
2022/05/24 00:30:53;;;;;;;;;;;16.00;99.90;;;;;;5094485;28;20027;-73
2022/05/24 00:33:21;;;;;;;;;;;16.00;99.90;;;;;;5067872;28;19931;-73
2022/05/24 00:35:53;;;;;;;;;;;15.90;99.90;;;;;;5101731;28;19928;-73
2022/05/24 00:38:26;;;;;;;;;;;15.90;99.90;;;;;;5070571;28;19935;-73
2022/05/24 00:41:12;;;;;;;;;;;15.90;99.90;;;;;;5077291;28;19924;-73
2022/05/24 00:43:49;;;;;;;;;;;15.90;99.90;;;;;;5082113;28;20293;-73
2022/05/24 00:46:22;;;;;;;;;;;15.90;99.90;;;;;;5085487;28;19935;-73
2022/05/24 00:49:02;;;;;;;;;;;15.90;99.90;;;;;;5080830;28;20312;-73
2022/05/24 00:51:37;;;;;;;;;;;15.80;99.90;;;;;;5087679;28;19932;-73
2022/05/24 00:54:03;;;;;;;;;;;15.80;99.90;;;;;;5097197;28;19924;-73
2022/05/24 00:56:48;;;;;;;;;;;15.80;99.90;;;;;;5083710;28;19935;-73
2022/05/24 00:59:20;;;;;;;;;;;15.80;99.90;;;;;;5057376;28;19924;-73
2022/05/24 01:01:47;;;;;;;;;;;15.80;99.90;;;;;;5073560;28;19932;-73
2022/05/24 01:04:19;;;;;;;;;;;15.80;99.90;;;;;;5052968;28;19935;-73
2022/05/24 01:06:51;;;;;;;;;;;15.80;99.90;;;;;;5064529;28;19928;-73
2022/05/24 01:09:29;;;;;;;;;;;15.80;99.90;;;;;;5060282;28;19932;-73
2022/05/24 01:11:58;;;;;;;;;;;15.80;99.90;;;;;;5066611;28;19931;-73
2022/05/24 01:14:30;;;;;;;;;;;15.80;99.90;;;;;;5075303;28;19928;-73
2022/05/24 01:17:02;;;;;;;;;;;15.80;99.90;;;;;;5082440;28;19931;-73
2022/05/24 01:19:35;;;;;;;;;;;15.80;99.90;;;;;;5096992;28;19924;-73
2022/05/24 01:22:16;;;;;;;;;;;15.80;99.90;;;;;;5070897;28;19931;-73
2022/05/24 01:24:52;;;;;;;;;;;15.80;99.90;;;;;;5081230;28;19929;-73
2022/05/24 01:27:23;;;;;;;;;;;15.80;99.90;;;;;;5068579;28;19998;-73
2022/05/24 01:29:50;;;;;;;;;;;15.80;99.90;;;;;;5072081;28;19928;-73
2022/05/24 01:38:01;;;;;;;;;;;15.80;99.90;;;;;;5075903;28;19924;-73
2022/05/24 01:40:32;;;;;;;;;;;15.80;99.90;;;;;;5061807;28;19923;-73
2022/05/24 01:42:59;;;;;;;;;;;15.80;99.90;;;;;;5093250;28;19931;-73
2022/05/24 01:45:32;;;;;;;;;;;15.80;99.90;;;;;;5065311;28;19953;-73
2022/05/24 01:48:06;;;;;;;;;;;15.80;99.90;;;;;;5056861;28;19924;-73
2022/05/24 01:50:40;;;;;;;;;;;15.80;99.90;;;;;;5086911;28;19924;-73
2022/05/24 01:53:21;;;;;;;;;;;15.80;99.90;;;;;;5059194;28;19974;-73
2022/05/24 01:55:54;;;;;;;;;;;15.80;99.90;;;;;;5076510;28;19928;-73
2022/05/24 01:58:28;;;;;;;;;;;15.80;99.90;;;;;;5057545;28;19946;-73
2022/05/24 02:01:24;;;;;;;;;;;15.80;99.90;;;;;;5100801;28;19935;-73
2022/05/24 02:03:58;;;;;;;;;;;15.80;99.90;;;;;;5067865;28;19924;-73
2022/05/24 02:06:26;;;;;;;;;;;15.70;99.90;;;;;;5062977;28;19936;-73
2022/05/24 02:08:58;;;;;;;;;;;15.70;99.90;;;;;;5090667;28;19928;-73
2022/05/24 02:11:30;;;;;;;;;;;15.70;99.90;;;;;;5080109;28;20011;-73
2022/05/24 02:14:00;;;;;;;;;;;15.70;99.90;;;;;;5067764;28;19931;-72
2022/05/24 02:16:34;;;;;;;;;;;15.70;99.90;;;;;;5054180;28;19928;-73
2022/05/24 02:19:01;;;;;;;;;;;15.70;99.90;;;;;;5098537;28;19935;-73
2022/05/24 02:21:33;;;;;;;;;;;15.70;99.90;;;;;;5064475;28;20784;-73
2022/05/24 02:24:14;;;;;;;;;;;15.60;99.90;;;;;;5090746;28;19931;-73
2022/05/24 02:26:46;;;;;;;;;;;15.60;99.90;;;;;;5079678;28;19933;-73
2022/05/24 02:29:19;;;;;;;;;;;15.60;99.90;;;;;;5075179;28;20345;-73
2022/05/24 02:31:51;;;;;;;;;;;15.60;99.90;;;;;;5070817;28;19931;-73
2022/05/24 02:34:23;;;;;;;;;;;15.60;99.90;;;;;;5071150;28;20404;-73
2022/05/24 02:36:54;;;;;;;;;;;15.60;99.90;;;;;;5054213;28;19925;-73
2022/05/24 02:39:21;;;;;;;;;;;15.50;99.90;;;;;;5066541;28;19940;-73
2022/05/24 02:41:52;;;;;;;;;;;15.50;99.90;;;;;;5071091;28;19942;-73
2022/05/24 02:44:24;;;;;;;;;;;15.60;99.90;;;;;;5070842;28;20020;-73
2022/05/24 02:46:55;;;;;;;;;;;15.50;99.90;;;;;;5086699;28;19928;-73
2022/05/24 02:49:27;;;;;;;;;;;15.60;99.90;;;;;;5053081;28;19947;-73
2022/05/24 02:51:59;;;;;;;;;;;15.60;99.90;;;;;;5078669;28;19924;-73
2022/05/24 02:54:30;;;;;;;;;;;15.60;99.90;;;;;;5081446;28;19932;-73
2022/05/24 02:57:04;;;;;;;;;;;15.60;99.90;;;;;;5081383;28;19931;-73
2022/05/24 02:59:32;;;;;;;;;;;15.60;99.90;;;;;;5081081;28;20351;-73
2022/05/24 03:02:04;;;;;;;;;;;15.60;99.90;;;;;;5076032;28;20420;-73
2022/05/24 03:04:35;;;;;;;;;;;15.60;99.90;;;;;;5074973;28;19924;-73
2022/05/24 03:09:57;;;;;;;;;;;15.60;99.90;;;;;;5071250;28;19924;-73
2022/05/24 03:15:17;;;;;;;;;;;15.60;99.90;;;;;;5080681;28;20011;-73
2022/05/24 03:17:49;;;;;;;;;;;15.60;99.90;;;;;;5080281;28;19925;-73
2022/05/24 03:20:20;;;;;;;;;;;15.60;99.90;;;;;;5079265;28;19924;-73
2022/05/24 03:22:47;;;;;;;;;;;15.50;99.90;;;;;;5086514;28;20381;-73
2022/05/24 03:25:19;;;;;;;;;;;15.50;99.90;;;;;;5103783;28;19932;-73
2022/05/24 03:27:51;;;;;;;;;;;15.50;99.90;;;;;;5082624;28;19935;-73
2022/05/24 03:30:23;;;;;;;;;;;15.50;99.90;;;;;;5084010;28;20538;-73
2022/05/24 03:32:54;;;;;;;;;;;15.50;99.90;;;;;;5085623;28;19928;-73
2022/05/24 03:35:26;;;;;;;;;;;15.50;99.90;;;;;;5094912;28;20312;-73
2022/05/24 03:37:57;;;;;;;;;;;15.50;99.90;;;;;;5078287;28;19924;-73
2022/05/24 03:40:29;;;;;;;;;;;15.50;99.90;;;;;;5079873;28;19924;-72
2022/05/24 03:43:01;;;;;;;;;;;15.60;99.90;;;;;;5108711;28;19931;-73
2022/05/24 03:45:34;;;;;;;;;;;15.60;99.90;;;;;;5066571;28;20019;-73
2022/05/24 03:48:07;;;;;;;;;;;15.50;99.90;;;;;;5080632;28;19928;-73
2022/05/24 03:50:34;;;;;;;;;;;15.60;99.90;;;;;;5064006;28;20381;-73
2022/05/24 03:53:07;;;;;;;;;;;15.60;99.90;;;;;;5082522;28;19928;-74
2022/05/24 03:55:38;;;;;;;;;;;15.60;99.90;;;;;;5107140;28;20410;-74
2022/05/24 03:58:10;;;;;;;;;;;15.60;99.90;;;;;;5056588;28;19928;-74
2022/05/24 04:00:42;;;;;;;;;;;15.50;99.90;;;;;;5090653;28;19924;-76
2022/05/24 04:03:09;;;;;;;;;;;15.50;99.90;;;;;;5067330;28;19932;-74
2022/05/24 04:05:36;;;;;;;;;;;15.40;99.90;;;;;;5065075;28;19939;-74
2022/05/24 04:08:08;;;;;;;;;;;15.40;99.90;;;;;;5085348;28;19928;-73
2022/05/24 04:10:40;;;;;;;;;;;15.50;99.90;;;;;;5067463;28;19931;-74
2022/05/24 04:13:06;;;;;;;;;;;15.40;99.90;;;;;;5083177;28;20350;-73
2022/05/24 04:15:38;;;;;;;;;;;15.40;99.90;;;;;;5060017;28;20319;-77
2022/05/24 04:18:04;;;;;;;;;;;15.30;99.90;;;;;;5071855;28;19931;-73
2022/05/24 04:20:31;;;;;;;;;;;15.30;99.90;;;;;;5104559;28;20407;-73
2022/05/24 04:23:03;;;;;;;;;;;15.30;99.90;;;;;;5101879;28;19928;-73
2022/05/24 04:25:35;;;;;;;;;;;15.30;99.90;;;;;;5072530;28;20447;-73
2022/05/24 04:28:07;;;;;;;;;;;15.30;99.90;;;;;;5064373;28;20030;-73
2022/05/24 04:30:38;;;;;;;;;;;15.20;99.90;;;;;;5068634;28;19925;-73
2022/05/24 04:33:05;;;;;;;;;;;15.20;99.90;;;;;;5084221;28;20406;-73
2022/05/24 04:35:37;;;;;;;;;;;15.20;99.90;;;;;;5055927;28;19931;-73
2022/05/24 04:38:03;;;;;;;;;;;15.20;99.90;;;;;;5068061;28;19924;-73
2022/05/24 04:43:15;;;;;;;;;;;15.20;99.90;;;;;;5073389;28;19924;-73
2022/05/24 04:45:47;;;;;;;;;;;15.20;99.90;;;;;;5085003;28;19931;-73
2022/05/24 04:48:16;;;;;;;;;;;15.20;99.90;;;;;;5064422;28;19977;-73
2022/05/24 04:50:51;;;;;;;;;;;15.20;99.90;;;;;;5084134;28;19925;-73
2022/05/24 04:53:23;;;;;;;;;;;15.20;99.90;;;;;;5082763;28;20522;-73
2022/05/24 04:55:51;;;;;;;;;;;15.20;99.90;;;;;;5051829;28;19981;-73
2022/05/24 04:58:23;;;;;;;;;;;15.20;99.90;;;;;;5070497;28;20155;-73
2022/05/24 05:00:54;;;;;;;;;;;15.20;99.90;;;;;;5065779;28;20312;-73
2022/05/24 05:03:26;;;;;;;;;;;15.20;99.90;;;;;;5088891;28;19928;-73
2022/05/24 05:05:57;;;;;;;;;;;15.20;99.90;;;;;;5103303;27;19925;-73
2022/05/24 05:08:24;;;;;;;;;;;15.10;99.90;;;;;;5099633;27;19928;-73
2022/05/24 05:10:56;;;;;;;;;;;15.20;99.90;;;;;;5083280;28;19935;-73
2022/05/24 05:13:23;;;;;;;;;;;15.10;99.90;;;;;;5080315;28;20315;-74
2022/05/24 05:15:54;;;;;;;;;;;15.10;99.90;;;;;;5098018;28;19934;-73
2022/05/24 05:18:26;;;;;;;;;;;15.20;99.90;;;;;;5094535;28;19935;-73
2022/05/24 05:20:59;;;;;;;;;;;15.10;99.90;;;;;;5093916;28;19931;-74
2022/05/24 05:23:31;;;;;;;;;;;15.20;99.90;;;;;;5085693;28;19938;-73
2022/05/24 05:26:02;;;;;;;;;;;15.10;99.90;;;;;;5107688;27;19924;-73
2022/05/24 05:28:34;;;;;;;;;;;15.10;99.90;;;;;;5106600;28;20372;-73
2022/05/24 05:33:51;;;;;;;;;;;15.20;99.90;;;;;;5081217;28;19923;-74
2022/05/24 05:36:18;;;;;;;;;;;15.20;99.90;;;;;;5096616;28;20294;-73
2022/05/24 05:38:50;;;;;;;;;;;15.20;99.90;;;;;;5090255;28;19924;-73
2022/05/24 05:41:25;;;;;;;;;;;15.20;99.90;;;;;;5086959;28;20015;-73
2022/05/24 05:43:52;;;;;;;;;;;15.20;99.90;;;;;;5087776;28;20411;-73
2022/05/24 05:46:24;;;;;;;;;;;15.10;99.90;;;;;;5071442;28;19960;-72
2022/05/24 05:48:56;;;;;;;;;;;15.20;99.90;;;;;;5085301;28;19925;-73
2022/05/24 05:51:27;;;;;;;;;;;15.10;99.90;;;;;;5069755;28;19924;-73
2022/05/24 05:53:54;;;;;;;;;;;15.10;99.90;;;;;;5091623;28;20428;-73
2022/05/24 05:56:25;;;;;;;;;;;15.10;99.90;;;;;;5085462;28;19940;-73
2022/05/24 05:58:57;;;;;;;;;;;15.10;99.90;;;;;;5072252;28;19924;-73
2022/05/24 06:01:29;;;;;;;;;;;15.10;99.90;;;;;;5065113;28;19924;-74
2022/05/24 06:04:01;;;;;;;;;;;15.00;99.90;;;;;;5071799;28;19925;-74
2022/05/24 06:06:34;;;;;;;;;;;15.00;99.90;;;;;;5083923;28;19924;-74
2022/05/24 06:09:01;;;;;;;;;;;15.00;99.90;;;;;;5042648;28;19924;-73
2022/05/24 06:11:32;;;;;;;;;;;15.00;99.90;;;;;;5081383;28;19947;-74
2022/05/24 06:14:04;;;;;;;;;;;15.00;99.90;;;;;;5077669;28;20316;-74
2022/05/24 06:16:36;;;;;;;;;;;15.00;99.90;;;;;;5071321;28;19931;-73
2022/05/24 06:19:07;;;;;;;;;;;15.00;99.90;;;;;;5040059;28;19943;-73
2022/05/24 06:21:39;;;;;;;;;;;15.00;99.90;;;;;;5084909;28;20408;-73
2022/05/24 06:24:10;;;;;;;;;;;14.90;99.90;;;;;;5052185;28;19928;-74
2022/05/24 06:26:44;;;;;;;;;;;14.90;99.90;;;;;;5067062;28;19929;-74
2022/05/24 06:29:16;;;;;;;;;;;15.00;99.90;;;;;;5071262;28;19931;-74
2022/05/24 06:31:48;;;;;;;;;;;15.00;99.90;;;;;;5059026;28;20289;-74
2022/05/24 06:34:20;;;;;;;;;;;15.00;99.90;;;;;;5071957;28;19928;-73
2022/05/24 06:36:51;;;;;;;;;;;15.00;99.90;;;;;;5080579;28;19925;-73
2022/05/24 06:39:18;;;;;;;;;;;15.00;99.90;;;;;;5061004;28;19927;-73
2022/05/24 06:41:49;;;;;;;;;;;15.00;99.90;;;;;;5067608;28;19931;-73
2022/05/24 06:44:27;;;;;;;;;;;15.00;99.90;;;;;;5063191;28;19925;-74
2022/05/24 06:46:59;;;;;;;;;;;15.00;99.90;;;;;;5062425;28;19924;-73
2022/05/24 06:49:30;;;;;;;;;;;15.00;99.90;;;;;;5056307;28;20328;-73
2022/05/24 06:52:02;;;;;;;;;;;15.10;99.90;;;;;;5071811;28;19928;-73
2022/05/24 06:54:35;;;;;;;;;;;15.00;99.90;;;;;;5091101;28;19928;-73
2022/05/24 06:57:07;;;;;;;;;;;15.00;99.90;;;;;;5051570;28;20361;-73
2022/05/24 07:02:29;;;;;;;;;;;15.00;99.90;;;;;;5078652;28;19928;-74
2022/05/24 07:05:06;;;;;;;;;;;14.90;99.90;;;;;;5054974;28;19947;-74
2022/05/24 07:07:38;;;;;;;;;;;14.90;99.90;;;;;;5058490;28;19935;-74
2022/05/24 07:10:12;;;;;;;;;;;14.90;99.90;;;;;;5062596;28;20027;-73
2022/05/24 07:12:45;;;;;;;;;;;14.90;99.90;;;;;;5075931;28;19928;-73
2022/05/24 07:15:16;;;;;;;;;;;14.90;99.90;;;;;;5068610;28;19939;-74
2022/05/24 07:17:49;;;;;;;;;;;14.90;99.90;;;;;;5088739;28;19924;-74
2022/05/24 07:20:21;;;;;;;;;;;14.80;99.90;;;;;;5061475;28;20389;-73
2022/05/24 07:22:50;;;;;;;;;;;14.80;99.90;;;;;;5044180;28;19932;-74
2022/05/24 07:25:22;;;;;;;;;;;14.80;99.90;;;;;;5047924;28;19925;-73
2022/05/24 07:27:54;;;;;;;;;;;14.90;99.90;;;;;;5093140;28;19932;-73
2022/05/24 07:30:25;;;;;;;;;;;14.80;99.90;;;;;;5060573;28;19937;-74
2022/05/24 07:32:57;;;;;;;;;;;14.80;99.90;;;;;;5080648;28;19935;-73
2022/05/24 07:35:28;;;;;;;;;;;14.70;99.90;;;;;;5085131;28;19931;-74
2022/05/24 07:37:55;;;;;;;;;;;14.60;99.90;;;;;;5082856;28;20316;-74
2022/05/24 07:46:01;;;;;;;;;;;14.60;99.90;;;;;;5070847;28;20398;-74
2022/05/24 07:48:34;;;;;;;;;;;14.50;99.90;;;;;;5068759;28;19924;-74
2022/05/24 07:51:06;;;;;;;;;;;14.60;99.90;;;;;;5088964;28;19931;-73
2022/05/24 07:53:33;;;;;;;;;;;14.50;99.90;;;;;;5070670;28;19964;-73
2022/05/24 07:56:05;;;;;;;;;;;14.40;99.90;;;;;;5105736;27;20023;-73
2022/05/24 07:58:36;;;;;;;;;;;14.30;99.90;;;;;;5074701;28;20015;-73
2022/05/24 08:01:10;;;;;;;;;;;14.30;99.90;;;;;;5067782;28;19935;-74
2022/05/24 08:03:44;;;;;;;;;;;14.30;99.90;;;;;;5071920;28;21274;-73
2022/05/24 08:06:10;;;;;;;;;;;14.20;99.90;;;;;;5066864;28;19924;-73
2022/05/24 08:08:42;;;;;;;;;;;14.20;99.90;;;;;;5056627;28;19924;-74
2022/05/24 08:11:09;;;;;;;;;;;14.20;99.90;;;;;;5078868;28;20325;-73
2022/05/24 08:13:41;;;;;;;;;;;14.20;99.90;;;;;;5070836;28;19924;-73
2022/05/24 08:16:12;;;;;;;;;;;14.20;99.90;;;;;;5078046;28;19943;-74
2022/05/24 08:18:44;;;;;;;;;;;14.20;99.90;;;;;;5080420;28;20356;-73
2022/05/24 08:21:11;;;;;;;;;;;14.20;99.90;;;;;;5074546;28;19928;-74
2022/05/24 08:23:42;;;;;;;;;;;14.20;99.90;;;;;;5062038;28;20640;-73
2022/05/24 08:26:14;;;;;;;;;;;14.30;99.90;;;;;;5077893;28;19925;-74
2022/05/24 08:28:47;;;;;;;;;;;14.30;99.90;;;;;;5096962;28;19928;-74
2022/05/24 08:31:15;;;;;;;;;;;14.30;99.90;;;;;;5063651;28;20296;-73
2022/05/24 08:33:47;;;;;;;;;;;14.30;99.90;;;;;;5064873;28;20308;-73
2022/05/24 08:36:13;;;;;;;;;;;14.40;99.90;;;;;;5056941;28;19931;-73
2022/05/24 08:38:45;;;;;;;;;;;14.40;99.90;;;;;;5084156;28;19935;-74
2022/05/24 08:41:39;;;;;;;;;;;14.40;99.90;;;;;;5069842;28;20352;-73
2022/05/24 08:50:05;;;;;;;;;;;14.60;99.90;;;;;;5085070;28;20301;-73
2022/05/24 08:52:39;;;;;;;;;;;14.60;99.90;;;;;;5090029;28;19928;-73
2022/05/24 08:55:12;;;;;;;;;;;14.70;99.90;;;;;;5076819;28;20408;-73
2022/05/24 08:57:48;;;;;;;;;;;14.80;99.90;;;;;;5078898;28;19929;-73
2022/05/24 09:00:25;;;;;;;;;;;14.90;99.90;;;;;;5085241;28;19925;-74
2022/05/24 09:02:57;;;;;;;;;;;15.00;99.90;;;;;;5073012;28;20266;-74
2022/05/24 09:05:32;;;;;;;;;;;15.10;99.90;;;;;;5068293;28;19924;-74
2022/05/24 09:08:12;;;;;;;;;;;15.20;99.90;;;;;;5085365;28;20336;-73
2022/05/24 09:11:03;;;;;;;;;;;15.30;99.90;;;;;;5055992;28;19929;-73
2022/05/24 09:13:47;;;;;;;;;;;15.30;99.90;;;;;;5097458;28;19928;-72
2022/05/24 09:16:19;;;;;;;;;;;15.40;99.90;;;;;;5061968;28;19925;-73
2022/05/24 09:18:50;;;;;;;;;;;15.50;99.90;;;;;;5087547;28;19984;-74
2022/05/24 09:21:22;;;;;;;;;;;15.50;99.90;;;;;;5066994;28;19932;-73
2022/05/24 09:24:02;;;;;;;;;;;15.60;99.90;;;;;;5082772;28;19931;-73
2022/05/24 09:26:53;;;;;;;;;;;15.60;99.90;;;;;;5086803;28;19947;-72
2022/05/24 09:29:25;;;;;;;;;;;15.70;99.90;;;;;;5066249;28;19932;-72
2022/05/24 09:31:57;;;;;;;;;;;15.70;99.90;;;;;;5061920;28;19933;-73
2022/05/24 09:34:31;;;;;;;;;;;15.80;99.90;;;;;;5103583;28;19939;-73
2022/05/24 09:37:02;;;;;;;;;;;15.80;99.90;;;;;;5052266;28;19925;-73
2022/05/24 09:39:40;;;;;;;;;;;15.90;99.90;;;;;;5097263;28;19947;-73
2022/05/24 09:42:14;;;;;;;;;;;15.90;99.90;;;;;;5067925;28;19932;-73
2022/05/24 09:44:46;;;;;;;;;;;15.90;99.90;;;;;;5077631;28;19967;-73
2022/05/24 09:47:27;;;;;;;;;;;15.70;99.90;;;;;;5101567;27;19927;-73
2022/05/24 09:50:17;;;;;;;;;;;15.60;99.90;;;;;;5088340;28;19928;-73
2022/05/24 09:53:08;;;;;;;;;;;15.50;99.90;;;;;;5064057;28;20337;-73
2022/05/24 09:55:49;;;;;;;;;;;15.40;99.90;;;;;;5079721;28;19936;-73
2022/05/24 09:58:16;;;;;;;;;;;15.30;99.90;;;;;;5081204;28;19978;-72
2022/05/24 10:00:52;;;;;;;;;;;15.30;99.90;;;;;;5074417;28;19939;-73
2022/05/24 10:03:26;;;;;;;;;;;15.30;99.90;;;;;;5064908;28;19931;-72
2022/05/24 10:06:02;;;;;;;;;;;15.30;99.90;;;;;;5060650;28;20385;-73
2022/05/24 10:08:38;;;;;;;;;;;15.30;99.90;;;;;;5065329;28;19935;-73
2022/05/24 10:11:18;;;;;;;;;;;15.30;99.90;;;;;;5078187;28;19924;-73
2022/05/24 10:13:49;;;;;;;;;;;15.30;99.90;;;;;;5068724;28;19924;-74
2022/05/24 10:16:21;;;;;;;;;;;15.30;99.90;;;;;;5098241;28;19924;-73
2022/05/24 10:18:52;;;;;;;;;;;15.30;99.90;;;;;;5065625;28;19924;-74
2022/05/24 10:21:33;;;;;;;;;;;15.30;99.90;;;;;;5072065;28;19935;-74
2022/05/24 10:24:00;;;;;;;;;;;15.20;99.90;;;;;;5082940;28;19951;-74
2022/05/24 10:26:51;;;;;;;;;;;15.20;99.90;;;;;;5052986;28;19924;-72
2022/05/24 10:29:38;;;;;;;;;;;15.20;99.90;;;;;;5075984;28;19935;-73
2022/05/24 10:38:19;;;;;;;;;;;15.20;99.90;;;;;;5087363;28;19935;-72
2022/05/24 10:41:10;;;;;;;;;;;15.20;99.90;;;;;;5071731;28;19924;-73
2022/05/24 10:43:54;;;;;;;;;;;15.20;99.90;;;;;;5060753;28;19935;-73
2022/05/24 10:46:46;;;;;;;;;;;15.20;99.90;;;;;;5063852;28;19978;-73
2022/05/24 10:49:30;;;;;;;;;;;15.20;99.90;;;;;;5078258;28;19932;-72
2022/05/24 10:52:03;;;;;;;;;;;15.20;99.90;;;;;;5070827;28;19964;-73
2022/05/24 10:54:45;;;;;;;;;;;15.20;99.90;;;;;;5098700;28;19927;-72
2022/05/24 10:57:25;;;;;;;;;;;15.20;99.90;;;;;;5075102;28;19935;-73
2022/05/24 10:59:55;;;;;;;;;;;15.30;99.90;;;;;;5070954;28;19959;-73
2022/05/24 11:02:32;;;;;;;;;;;15.30;99.90;;;;;;5076575;28;19935;-73
2022/05/24 11:05:08;;;;;;;;;;;15.40;99.90;;;;;;5061180;28;19927;-73
2022/05/24 11:07:36;;;;;;;;;;;15.30;99.90;;;;;;5099116;28;19974;-73
2022/05/24 11:10:09;;;;;;;;;;;15.40;99.90;;;;;;5096634;28;19934;-73
2022/05/24 11:12:43;;;;;;;;;;;15.40;99.90;;;;;;5075700;28;19943;-73
2022/05/24 11:15:18;;;;;;;;;;;15.50;99.90;;;;;;5092010;28;19984;-73
2022/05/24 11:17:50;;;;;;;;;;;15.50;99.90;;;;;;5077223;28;19932;-73
2022/05/24 11:20:23;;;;;;;;;;;15.50;99.90;;;;;;5061080;28;19951;-73
2022/05/24 11:23:14;;;;;;;;;;;15.50;99.90;;;;;;5105852;28;19924;-74
2022/05/24 11:25:52;;;;;;;;;;;15.40;99.90;;;;;;5088621;28;19938;-73
2022/05/24 11:28:27;;;;;;;;;;;15.30;99.90;;;;;;5088353;28;19924;-72
2022/05/24 11:31:17;;;;;;;;;;;15.30;99.90;;;;;;5055882;28;19928;-74
2022/05/24 11:33:44;;;;;;;;;;;15.20;99.90;;;;;;5093213;28;20349;-73
2022/05/24 11:36:32;;;;;;;;;;;15.10;99.90;;;;;;5096490;28;19947;-73
2022/05/24 11:39:06;;;;;;;;;;;15.10;99.90;;;;;;5076466;28;19947;-73
2022/05/24 11:41:32;;;;;;;;;;;15.00;99.90;;;;;;5073811;28;19931;-73
2022/05/24 11:44:02;;;;;;;;;;;14.90;99.90;;;;;;5078647;28;20192;-75
2022/05/24 11:46:33;;;;;;;;;;;14.90;99.90;;;;;;5067171;28;19928;-73
2022/05/24 11:49:09;;;;;;;;;;;14.90;99.90;;;;;;5076943;28;19931;-73
2022/05/24 11:51:44;;;;;;;;;;;14.90;99.90;;;;;;5083128;28;19924;-72
2022/05/24 11:54:16;;;;;;;;;;;15.00;99.90;;;;;;5078192;28;19928;-73
2022/05/24 11:56:55;;;;;;;;;;;15.00;99.90;;;;;;5071700;28;20489;-73
2022/05/24 11:59:39;;;;;;;;;;;15.00;99.90;;;;;;5093272;28;20024;-73
2022/05/24 12:07:53;;;;;;;;;;;15.00;99.90;;;;;;5088540;28;19927;-73
2022/05/24 12:08:41;;;;;;;;;;;15.30;99.90;;;;;;5089956;28;20562;-73
2022/05/24 12:11:15;;;;;;;;;;;15.60;99.90;;;;;;5063346;28;19932;-73
2022/05/24 12:13:46;;;;;;;;;;;15.70;99.90;;;;;;5100077;28;19936;-73
2022/05/24 12:16:50;;;;;;;;;;;15.80;99.90;;;;;;5114012;28;19930;-73
2022/05/24 12:19:40;;;;;;;;;;;15.80;99.90;;;;;;5059860;28;19933;-73
2022/05/24 12:22:08;;;;;;;;;;;16.00;99.90;;;;;;5071418;28;20023;-73
2022/05/24 12:24:38;;;;;;;;;;;16.20;99.90;;;;;;5100176;28;19925;-74
2022/05/24 12:27:20;;;;;;;;;;;16.40;99.90;;;;;;5052088;28;19942;-73
2022/05/24 12:29:53;;;;;;;;;;;16.30;99.90;;;;;;5082356;28;19930;-73
2022/05/24 12:32:22;;;;;;;;;;;16.30;99.90;;;;;;5064817;28;19928;-73
2022/05/24 12:34:53;;;;;;;;;;;16.40;99.90;;;;;;5079402;28;19947;-73
2022/05/24 12:37:26;;;;;;;;;;;16.30;99.90;;;;;;5068460;28;20027;-73
2022/05/24 12:40:04;;;;;;;;;;;16.30;99.90;;;;;;5081820;28;20447;-73
2022/05/24 12:42:41;;;;;;;;;;;16.30;99.90;;;;;;5064283;28;20316;-73
2022/05/24 12:45:08;;;;;;;;;;;16.40;99.90;;;;;;5069331;28;20397;-73
2022/05/24 12:47:35;;;;;;;;;;;16.70;99.90;;;;;;5087832;28;19928;-73
2022/05/24 12:50:07;;;;;;;;;;;16.90;99.90;;;;;;5072487;28;20396;-73
2022/05/24 12:52:42;;;;;;;;;;;17.20;99.90;;;;;;5076531;28;19933;-74
2022/05/24 12:55:54;;;;;;;;;;;17.40;99.90;;;;;;5066264;28;19924;-73
2022/05/24 12:58:14;;;;;;;;;;;17.40;99.90;;;;;;5087561;28;19935;-72
2022/05/24 13:00:46;;;;;;;;;;;17.40;99.90;;;;;;5080714;28;19932;-73
2022/05/24 13:03:17;;;;;;;;;;;17.70;99.90;;;;;;5085649;28;19928;-73
2022/05/24 13:05:54;;;;;;;;;;;17.80;99.90;;;;;;5089300;28;19924;-73
2022/05/24 13:08:25;;;;;;;;;;;18.10;99.90;;;;;;5087692;28;19935;-73
2022/05/24 13:10:58;;;;;;;;;;;18.00;99.90;;;;;;5083771;28;19931;-73
2022/05/24 13:13:30;;;;;;;;;;;18.10;99.90;;;;;;5064454;28;20043;-73
2022/05/24 13:15:58;;;;;;;;;;;18.00;99.90;;;;;;5080887;28;20285;-73
2022/05/24 13:18:32;;;;;;;;;;;18.10;99.90;;;;;;5096002;28;20419;-73
2022/05/24 13:21:05;;;;;;;;;;;18.20;99.90;;;;;;5093738;28;19935;-73
2022/05/24 13:23:32;;;;;;;;;;;18.30;99.90;;;;;;5062454;28;19924;-73
2022/05/24 13:26:04;;;;;;;;;;;18.30;99.90;;;;;;5055454;28;19932;-73
2022/05/24 13:28:38;;;;;;;;;;;18.10;99.90;;;;;;5066899;28;19928;-73
2022/05/24 13:34:20;;;;;;;;;;;17.70;99.90;;;;;;5080177;28;19971;-72
2022/05/24 13:36:53;;;;;;;;;;;17.70;99.90;;;;;;5065873;28;20403;-73
2022/05/24 13:39:27;;;;;;;;;;;17.70;99.90;;;;;;5065445;28;19928;-73
2022/05/24 13:42:03;;;;;;;;;;;17.80;99.90;;;;;;5076914;28;19925;-73
2022/05/24 13:44:39;;;;;;;;;;;17.90;99.90;;;;;;5083228;28;20405;-73
2022/05/24 13:47:33;;;;;;;;;;;17.90;99.90;;;;;;5099647;28;19928;-73
2022/05/24 13:50:14;;;;;;;;;;;18.00;99.90;;;;;;5086187;28;19974;-73
2022/05/24 13:52:50;;;;;;;;;;;18.00;99.90;;;;;;5088621;28;19955;-73
2022/05/24 13:55:17;;;;;;;;;;;18.10;99.90;;;;;;5099212;28;19955;-72
2022/05/24 13:58:06;;;;;;;;;;;18.10;99.90;;;;;;5072843;28;19931;-73
2022/05/24 14:00:49;;;;;;;;;;;18.30;99.90;;;;;;5106658;27;20022;-73
2022/05/24 14:03:26;;;;;;;;;;;18.40;99.90;;;;;;5089992;28;19931;-73
2022/05/24 14:06:02;;;;;;;;;;;18.30;99.90;;;;;;5072521;28;19928;-73
2022/05/24 14:08:34;;;;;;;;;;;18.20;99.90;;;;;;5096690;28;19931;-73
2022/05/24 14:11:01;;;;;;;;;;;18.20;99.90;;;;;;5109128;27;19935;-72
2022/05/24 14:13:28;;;;;;;;;;;18.40;99.90;;;;;;5072916;28;19928;-73
2022/05/24 14:16:02;;;;;;;;;;;18.40;99.90;;;;;;5098668;28;19932;-73
2022/05/24 14:18:29;;;;;;;;;;;18.40;99.90;;;;;;5067755;28;19928;-73
2022/05/24 14:21:01;;;;;;;;;;;18.40;99.90;;;;;;5071941;28;20311;-73
2022/05/24 14:23:34;;;;;;;;;;;18.60;99.90;;;;;;5070999;28;19924;-73
2022/05/24 14:26:06;;;;;;;;;;;18.80;99.90;;;;;;5086860;28;19928;-73
2022/05/24 14:28:34;;;;;;;;;;;18.80;99.90;;;;;;5072385;28;19973;-73
2022/05/24 14:31:05;;;;;;;;;;;19.00;99.90;;;;;;5072706;28;19928;-73
2022/05/24 14:33:37;;;;;;;;;;;19.30;99.90;;;;;;5091020;28;20403;-73
2022/05/24 14:36:09;;;;;;;;;;;19.50;99.90;;;;;;5068585;28;20388;-73
2022/05/24 14:38:35;;;;;;;;;;;19.30;99.90;;;;;;5072255;28;19932;-73
2022/05/24 14:41:21;;;;;;;;;;;19.20;99.90;;;;;;5063748;28;19936;-73
2022/05/24 14:44:00;;;;;;;;;;;19.20;99.90;;;;;;5065866;28;19924;-72
2022/05/24 14:46:33;;;;;;;;;;;19.20;99.90;;;;;;5066068;28;20400;-73
2022/05/24 14:49:05;;;;;;;;;;;19.00;99.90;;;;;;5105924;28;19998;-73
2022/05/24 14:51:41;;;;;;;;;;;18.60;99.90;;;;;;5075742;28;19931;-73
2022/05/24 14:54:12;;;;;;;;;;;18.30;99.90;;;;;;5105650;28;19928;-73
2022/05/24 14:56:44;;;;;;;;;;;18.10;99.90;;;;;;5077882;28;19934;-72
2022/05/24 14:59:17;;;;;;;;;;;17.90;99.90;;;;;;5097886;28;19975;-73
2022/05/24 15:01:44;;;;;;;;;;;17.90;99.90;;;;;;5072239;28;19928;-72
2022/05/24 15:04:16;;;;;;;;;;;17.80;99.90;;;;;;5087818;28;19994;-73
2022/05/24 15:06:44;;;;;;;;;;;17.80;99.90;;;;;;5074812;28;19932;-72
2022/05/24 15:17:43;;;;;;;;;;;17.50;99.90;;;;;;5113710;27;20321;-72
2022/05/24 15:20:17;;;;;;;;;;;17.40;99.90;;;;;;5085361;28;20587;-73
2022/05/24 15:23:01;;;;;;;;;;;17.20;99.90;;;;;;5078781;28;19928;-73
2022/05/24 15:25:38;;;;;;;;;;;17.10;99.90;;;;;;5080127;28;19930;-73
2022/05/24 15:28:12;;;;;;;;;;;17.20;99.90;;;;;;5109962;27;19935;-73
2022/05/24 15:30:44;;;;;;;;;;;17.10;99.90;;;;;;5070000;28;19928;-72
2022/05/24 15:33:16;;;;;;;;;;;17.00;99.90;;;;;;5086932;28;20408;-72
2022/05/24 15:35:47;;;;;;;;;;;16.90;99.90;;;;;;5117601;27;19938;-73
2022/05/24 15:38:20;;;;;;;;;;;16.80;99.90;;;;;;5073602;28;19925;-73
2022/05/24 15:40:51;;;;;;;;;;;16.80;99.90;;;;;;5099748;28;19935;-73
2022/05/24 15:43:23;;;;;;;;;;;16.80;99.90;;;;;;5091404;28;20292;-72